Time;durP1;ratioP1;P1;durP2;ratioP2;P2;SDS_P1;SDS_P2;PMS_P1;PMS_P2;Temp;Humidity;BMP_temperature;BMP_pressure;BME280_temperature;BME280_humidity;BME280_pressure;Samples;Min_cycle;Max_cycle;Signal;HPM_P1;HPM_P2
2023/02/07 00:01:50;;;;;;;26.70;18.17;;;0.60;99.90;;;;;;5019153;28;20030;-68
2023/02/07 00:04:36;;;;;;;32.85;19.58;;;0.50;99.90;;;;;;5015203;28;20042;-68
2023/02/07 00:07:21;;;;;;;30.00;17.67;;;0.50;99.90;;;;;;5021014;28;20037;-68
2023/02/07 00:10:08;;;;;;;30.05;18.50;;;0.50;99.90;;;;;;5033346;28;20464;-67
2023/02/07 00:12:54;;;;;;;30.85;18.23;;;0.50;99.90;;;;;;5024027;28;20038;-67
2023/02/07 00:15:40;;;;;;;28.33;17.10;;;0.50;99.90;;;;;;5029396;28;20593;-68
2023/02/07 00:18:26;;;;;;;27.35;18.20;;;0.50;99.90;;;;;;5033141;28;20064;-68
2023/02/07 00:21:14;;;;;;;29.77;17.77;;;0.40;99.90;;;;;;5029377;28;20089;-68
2023/02/07 00:24:00;;;;;;;30.38;18.23;;;0.40;99.90;;;;;;5013379;28;20109;-67
2023/02/07 00:26:47;;;;;;;29.00;17.85;;;0.40;99.90;;;;;;5035069;28;20029;-67
2023/02/07 00:29:33;;;;;;;29.35;18.13;;;0.40;99.90;;;;;;5034350;28;20488;-68
2023/02/07 00:32:19;;;;;;;30.27;18.00;;;0.50;99.90;;;;;;5029171;28;20065;-67
2023/02/07 00:35:05;;;;;;;30.27;18.45;;;0.40;99.90;;;;;;5023863;28;20519;-66
2023/02/07 00:37:51;;;;;;;30.25;18.73;;;0.40;99.90;;;;;;5001629;28;20070;-70
2023/02/07 00:40:37;;;;;;;27.67;18.17;;;0.40;99.90;;;;;;5022001;28;20025;-67
2023/02/07 00:43:24;;;;;;;27.42;18.17;;;0.40;99.90;;;;;;5025989;28;20033;-67
2023/02/07 00:46:10;;;;;;;28.27;16.70;;;0.40;99.90;;;;;;5028135;28;20037;-67
2023/02/07 00:48:56;;;;;;;27.48;17.00;;;0.40;99.90;;;;;;5024604;28;20524;-67
2023/02/07 00:51:42;;;;;;;25.63;17.00;;;0.40;99.90;;;;;;5026333;28;20029;-67
2023/02/07 00:54:28;;;;;;;26.25;16.83;;;0.40;99.90;;;;;;5014289;28;20292;-67
2023/02/07 00:57:14;;;;;;;26.60;16.98;;;0.40;99.90;;;;;;5012934;28;20030;-67
2023/02/07 01:00:00;;;;;;;26.13;17.55;;;0.30;99.90;;;;;;5001113;28;20156;-67
2023/02/07 01:02:46;;;;;;;27.60;17.20;;;0.30;99.90;;;;;;5028582;28;20029;-68
2023/02/07 01:05:32;;;;;;;25.25;17.73;;;0.30;99.90;;;;;;5027280;28;20455;-67
2023/02/07 01:08:18;;;;;;;29.08;18.52;;;0.30;99.90;;;;;;5004295;28;20030;-68
2023/02/07 01:11:07;;;;;;;29.25;18.33;;;0.30;99.90;;;;;;5035456;28;20499;-67
2023/02/07 01:13:53;;;;;;;26.95;17.20;;;0.30;99.90;;;;;;5029495;28;20044;-67
2023/02/07 01:16:39;;;;;;;28.85;17.83;;;0.40;99.90;;;;;;5026670;28;20080;-67
2023/02/07 01:19:25;;;;;;;25.42;16.77;;;0.30;99.90;;;;;;5041344;28;20415;-68
2023/02/07 01:22:11;;;;;;;31.85;18.10;;;0.30;99.90;;;;;;5024321;28;20433;-67
2023/02/07 01:24:57;;;;;;;33.35;17.52;;;0.20;99.90;;;;;;5027365;28;20492;-68
2023/02/07 01:27:43;;;;;;;26.33;16.55;;;0.20;99.90;;;;;;5023132;28;20029;-68
2023/02/07 01:30:28;;;;;;;26.85;16.98;;;0.20;99.90;;;;;;5026921;28;20582;-68
2023/02/07 01:33:14;;;;;;;23.40;15.07;;;0.20;99.90;;;;;;5032088;28;20044;-68
2023/02/07 01:36:12;;;;;;;23.10;16.23;;;0.20;99.90;;;;;;5031482;28;20075;-68
2023/02/07 01:38:58;;;;;;;25.73;16.42;;;0.20;99.90;;;;;;5025897;28;20037;-68
2023/02/07 01:41:44;;;;;;;26.95;16.48;;;0.20;99.90;;;;;;5015961;28;20018;-68
2023/02/07 01:44:35;;;;;;;27.52;16.45;;;0.20;99.90;;;;;;5014505;28;20060;-67
2023/02/07 01:47:23;;;;;;;27.90;16.95;;;0.20;99.70;;;;;;5030122;28;20497;-67
2023/02/07 01:50:09;;;;;;;32.00;18.45;;;0.10;99.70;;;;;;5028434;28;20040;-67
2023/02/07 01:52:57;;;;;;;31.05;19.23;;;0.10;99.70;;;;;;5014634;28;20038;-67
2023/02/07 01:55:45;;;;;;;28.05;16.35;;;0.10;99.80;;;;;;5025419;28;20487;-67
2023/02/07 01:58:33;;;;;;;31.67;17.42;;;0.10;99.80;;;;;;5018264;28;20481;-67
2023/02/07 02:01:23;;;;;;;30.40;17.13;;;0.10;99.80;;;;;;5012755;28;20116;-67
2023/02/07 02:04:10;;;;;;;29.60;16.90;;;0.10;99.60;;;;;;5018404;28;20051;-68
2023/02/07 02:06:56;;;;;;;31.15;18.30;;;0.10;99.60;;;;;;5021979;28;20507;-69
2023/02/07 02:09:42;;;;;;;37.85;19.40;;;0.00;99.60;;;;;;5032477;28;20444;-69
2023/02/07 02:12:46;;;;;;;33.28;17.88;;;0.00;99.70;;;;;;5026733;28;20046;-68
2023/02/07 02:15:59;;;;;;;35.70;20.02;;;0.00;99.70;;;;;;5025959;28;20034;-68
2023/02/07 02:18:45;;;;;;;33.58;18.25;;;0.00;99.70;;;;;;5018266;28;20049;-68
2023/02/07 02:21:55;;;;;;;33.80;19.20;;;0.00;99.70;;;;;;5022407;28;20397;-67
2023/02/07 02:25:04;;;;;;;31.13;18.02;;;0.00;99.70;;;;;;5012744;28;20057;-67
2023/02/07 02:28:07;;;;;;;33.33;18.17;;;-0.10;99.70;;;;;;5027376;28;20033;-68
2023/02/07 02:31:11;;;;;;;34.72;18.90;;;-0.10;99.70;;;;;;5024007;28;20503;-67
2023/02/07 02:34:24;;;;;;;36.88;18.77;;;-0.10;99.70;;;;;;5033446;28;20088;-69
2023/02/07 02:37:19;;;;;;;30.92;18.40;;;-0.20;99.70;;;;;;5026963;28;20405;-68
2023/02/07 02:40:08;;;;;;;30.92;17.90;;;-0.20;99.80;;;;;;5024680;28;20036;-68
2023/02/07 02:43:20;;;;;;;31.92;18.30;;;-0.20;99.70;;;;;;5019463;28;20028;-68
2023/02/07 02:46:21;;;;;;;31.88;17.90;;;-0.20;99.80;;;;;;5000005;28;20041;-69
2023/02/07 02:49:11;;;;;;;30.90;17.50;;;-0.20;99.80;;;;;;5027668;28;20021;-69
2023/02/07 02:51:58;;;;;;;31.85;18.23;;;-0.20;99.80;;;;;;5013982;28;20061;-68
2023/02/07 02:54:44;;;;;;;34.00;17.83;;;-0.20;99.80;;;;;;5021745;28;20033;-68
2023/02/07 02:57:48;;;;;;;31.23;18.25;;;-0.10;99.70;;;;;;5031523;28;20033;-68
2023/02/07 03:00:55;;;;;;;32.92;17.00;;;-0.10;99.70;;;;;;5030479;28;20046;-68
2023/02/07 03:03:52;;;;;;;30.02;16.75;;;-0.20;99.70;;;;;;5027233;28;20041;-68
2023/02/07 03:06:59;;;;;;;36.53;18.10;;;-0.20;99.70;;;;;;5024624;28;20045;-68
2023/02/07 03:10:22;;;;;;;35.33;18.60;;;-0.20;99.70;;;;;;4997375;28;20549;-69
2023/02/07 03:13:20;;;;;;;34.60;18.30;;;-0.20;99.70;;;;;;5026459;28;20056;-68
2023/02/07 03:16:21;;;;;;;27.80;17.17;;;-0.30;99.60;;;;;;5016021;28;20037;-68
2023/02/07 03:19:18;;;;;;;27.60;17.92;;;-0.30;99.70;;;;;;5015658;28;20046;-72
2023/02/07 03:22:10;;;;;;;30.67;16.48;;;-0.30;99.70;;;;;;5028753;28;20029;-74
2023/02/07 03:24:58;;;;;;;28.10;17.05;;;-0.30;99.70;;;;;;5015048;28;20041;-72
2023/02/07 03:27:46;;;;;;;26.30;16.25;;;-0.30;99.70;;;;;;5025990;28;20112;-73
2023/02/07 03:30:33;;;;;;;25.83;15.18;;;-0.30;99.60;;;;;;5020861;28;20573;-73
2023/02/07 03:33:20;;;;;;;27.83;16.77;;;-0.30;99.60;;;;;;5026610;28;20104;-73
2023/02/07 03:36:32;;;;;;;25.70;17.38;;;-0.30;99.70;;;;;;5025007;28;20041;-74
2023/02/07 03:39:19;;;;;;;25.70;16.33;;;-0.30;99.60;;;;;;5033530;28;20030;-74
2023/02/07 03:42:23;;;;;;;29.33;17.75;;;-0.30;99.60;;;;;;5026235;28;20303;-74
2023/02/07 03:45:13;;;;;;;25.83;16.08;;;-0.30;99.60;;;;;;5019134;28;20045;-74
2023/02/07 03:47:59;;;;;;;27.27;18.15;;;-0.30;99.60;;;;;;5023932;28;20033;-74
2023/02/07 03:50:47;;;;;;;30.42;18.77;;;-0.30;99.60;;;;;;5012430;28;20042;-74
2023/02/07 03:53:33;;;;;;;29.95;17.58;;;-0.30;99.60;;;;;;5005438;28;20041;-74
2023/02/07 03:56:19;;;;;;;32.50;17.65;;;-0.30;99.60;;;;;;5040267;28;20456;-72
2023/02/07 03:59:05;;;;;;;27.85;17.23;;;-0.40;99.60;;;;;;5019836;28;20161;-73
2023/02/07 04:01:51;;;;;;;29.88;17.73;;;-0.40;99.60;;;;;;5009646;28;20037;-73
2023/02/07 04:04:37;;;;;;;28.58;17.85;;;-0.40;99.50;;;;;;5032904;28;20076;-73
2023/02/07 04:07:23;;;;;;;32.33;17.67;;;-0.40;99.60;;;;;;5023670;28;20125;-73
2023/02/07 04:10:09;;;;;;;24.83;16.52;;;-0.40;99.50;;;;;;5028550;28;20087;-72
2023/02/07 04:12:55;;;;;;;28.20;17.25;;;-0.50;99.50;;;;;;5015412;28;20034;-73
2023/02/07 04:15:41;;;;;;;26.88;17.38;;;-0.50;99.50;;;;;;5027635;28;20025;-73
2023/02/07 04:18:27;;;;;;;31.35;19.20;;;-0.50;99.40;;;;;;5014169;28;20040;-72
2023/02/07 04:21:13;;;;;;;28.80;18.15;;;-0.60;99.40;;;;;;5026544;28;20136;-71
2023/02/07 04:23:59;;;;;;;29.20;19.17;;;-0.60;99.40;;;;;;5026379;28;20516;-72
2023/02/07 04:26:45;;;;;;;27.23;17.00;;;-0.60;99.40;;;;;;5018055;28;20026;-72
2023/02/07 04:29:31;;;;;;;34.55;19.33;;;-0.70;99.40;;;;;;5026225;28;20120;-72
2023/02/07 04:32:17;;;;;;;31.20;18.65;;;-0.70;99.40;;;;;;5023933;28;20026;-72
2023/02/07 04:35:03;;;;;;;28.45;18.83;;;-0.80;99.30;;;;;;5024667;28;20037;-72
2023/02/07 04:37:49;;;;;;;29.00;18.33;;;-0.80;99.40;;;;;;5012043;28;20033;-72
2023/02/07 04:40:37;;;;;;;29.80;17.60;;;-0.80;99.40;;;;;;5016072;28;20420;-72
2023/02/07 04:43:23;;;;;;;27.70;17.02;;;-0.80;99.40;;;;;;5034929;28;20024;-72
2023/02/07 04:46:09;;;;;;;31.25;18.95;;;-0.80;99.50;;;;;;5018174;28;20057;-72
2023/02/07 04:48:55;;;;;;;28.05;17.90;;;-0.80;99.40;;;;;;5022042;28;20055;-71
2023/02/07 04:51:41;;;;;;;30.17;17.98;;;-0.80;99.40;;;;;;5001272;28;20034;-71
2023/02/07 04:54:27;;;;;;;29.77;17.63;;;-0.80;99.40;;;;;;5020690;28;20026;-71
2023/02/07 04:57:13;;;;;;;26.08;17.55;;;-0.80;99.40;;;;;;5019010;28;20033;-72
2023/02/07 04:59:58;;;;;;;26.00;17.02;;;-0.90;99.40;;;;;;5026249;28;20460;-71
2023/02/07 05:02:45;;;;;;;24.30;15.88;;;-0.90;99.40;;;;;;5013820;28;20029;-72
2023/02/07 05:05:30;;;;;;;25.35;16.05;;;-0.90;99.40;;;;;;5031588;28;20037;-73
2023/02/07 05:08:16;;;;;;;26.65;16.92;;;-0.90;99.40;;;;;;5028977;28;20476;-72
2023/02/07 05:11:04;;;;;;;28.50;17.42;;;-0.90;99.40;;;;;;5022943;28;20025;-74
2023/02/07 05:13:50;;;;;;;27.15;17.17;;;-0.90;99.40;;;;;;5025098;28;20207;-74
2023/02/07 05:16:36;;;;;;;42.40;24.83;;;-0.90;99.30;;;;;;5029647;28;20033;-74
2023/02/07 05:19:22;;;;;;;38.15;22.58;;;-0.90;99.30;;;;;;5031297;28;20026;-74
2023/02/07 05:22:08;;;;;;;41.03;22.70;;;-1.00;99.30;;;;;;5026938;28;20112;-72
2023/02/07 05:24:54;;;;;;;36.80;20.85;;;-1.00;99.30;;;;;;5013647;28;20052;-74
2023/02/07 05:27:40;;;;;;;31.58;18.48;;;-1.00;99.30;;;;;;5013853;28;20026;-73
2023/02/07 05:30:26;;;;;;;29.67;18.23;;;-1.00;99.40;;;;;;5012157;28;20481;-73
2023/02/07 05:33:12;;;;;;;28.80;16.73;;;-1.00;99.40;;;;;;5016906;28;20112;-73
2023/02/07 05:36:00;;;;;;;27.88;17.80;;;-1.00;99.30;;;;;;5023839;28;20041;-73
2023/02/07 05:38:46;;;;;;;29.88;17.65;;;-1.00;99.40;;;;;;5024935;28;20413;-72
2023/02/07 05:41:32;;;;;;;27.38;17.70;;;-1.00;99.40;;;;;;5016695;28;20033;-73
2023/02/07 05:44:18;;;;;;;30.02;17.52;;;-1.00;99.30;;;;;;5013516;28;20038;-73
2023/02/07 05:47:04;;;;;;;30.30;18.95;;;-1.00;99.30;;;;;;5014535;28;20068;-73
2023/02/07 05:49:50;;;;;;;28.17;17.88;;;-1.10;99.30;;;;;;5025096;28;20040;-72
2023/02/07 05:52:36;;;;;;;30.20;19.45;;;-1.10;99.30;;;;;;5014569;28;20330;-73
2023/02/07 05:55:22;;;;;;;29.15;19.83;;;-1.10;99.30;;;;;;5011836;28;20045;-73
2023/02/07 05:58:08;;;;;;;40.38;25.88;;;-1.10;99.30;;;;;;5016061;28;20033;-73
2023/02/07 06:00:54;;;;;;;50.65;31.50;;;-1.10;99.30;;;;;;5015482;28;20042;-72
2023/02/07 06:03:40;;;;;;;48.53;26.90;;;-1.10;99.30;;;;;;5017618;28;20038;-72
2023/02/07 06:06:26;;;;;;;37.20;23.25;;;-1.10;99.30;;;;;;5014957;28;20040;-72
2023/02/07 06:09:12;;;;;;;37.85;23.98;;;-1.10;99.30;;;;;;5021893;28;20032;-72
2023/02/07 06:11:58;;;;;;;37.00;23.25;;;-1.20;99.30;;;;;;5011953;28;20030;-72
2023/02/07 06:14:44;;;;;;;40.78;23.85;;;-1.10;99.30;;;;;;5022952;28;20631;-73
2023/02/07 06:17:30;;;;;;;38.40;23.77;;;-1.20;99.20;;;;;;5022968;28;20124;-72
2023/02/07 06:20:16;;;;;;;38.58;23.02;;;-1.10;99.30;;;;;;5014118;28;20048;-72
2023/02/07 06:23:02;;;;;;;35.90;19.83;;;-1.10;99.30;;;;;;5026751;28;20033;-73
2023/02/07 06:25:48;;;;;;;36.55;20.83;;;-1.10;99.20;;;;;;5019937;28;20046;-72
2023/02/07 06:28:34;;;;;;;36.58;21.48;;;-1.20;99.20;;;;;;5029692;28;20037;-72
2023/02/07 06:31:20;;;;;;;34.85;20.85;;;-1.20;99.30;;;;;;5022687;28;20025;-74
2023/02/07 06:34:06;;;;;;;31.20;19.35;;;-1.20;99.30;;;;;;5023918;28;20128;-72
2023/02/07 06:36:52;;;;;;;28.52;19.08;;;-1.10;99.30;;;;;;5031057;28;20029;-73
2023/02/07 06:39:38;;;;;;;30.27;19.27;;;-1.10;99.20;;;;;;5035377;28;20044;-73
2023/02/07 06:42:24;;;;;;;30.02;19.73;;;-1.10;99.20;;;;;;5017478;28;20498;-72
2023/02/07 06:45:10;;;;;;;33.10;20.15;;;-1.10;99.20;;;;;;5023284;28;20461;-71
2023/02/07 06:47:56;;;;;;;29.20;21.02;;;-1.10;99.20;;;;;;5031056;28;20389;-72
2023/02/07 06:50:42;;;;;;;28.05;18.67;;;-1.00;99.20;;;;;;5016160;28;20069;-72
2023/02/07 06:53:28;;;;;;;33.22;19.75;;;-1.00;99.20;;;;;;5019553;28;20033;-71
2023/02/07 06:56:14;;;;;;;28.25;17.95;;;-1.00;99.20;;;;;;5031443;28;20071;-67
2023/02/07 06:59:00;;;;;;;26.52;17.60;;;-1.00;99.20;;;;;;5011329;28;20533;-70
2023/02/07 07:01:46;;;;;;;31.60;19.40;;;-0.90;99.20;;;;;;5003481;28;20029;-70
2023/02/07 07:04:32;;;;;;;29.30;17.42;;;-0.90;99.20;;;;;;4993105;28;20061;-70
2023/02/07 07:07:18;;;;;;;27.00;16.85;;;-0.90;99.20;;;;;;5000427;28;20092;-68
2023/02/07 07:10:06;;;;;;;31.17;18.58;;;-0.90;99.30;;;;;;5004013;28;20034;-69
2023/02/07 07:12:52;;;;;;;29.52;18.00;;;-0.80;99.30;;;;;;5007663;28;20033;-70
2023/02/07 07:15:38;;;;;;;31.20;17.27;;;-0.80;99.30;;;;;;4993446;28;20093;-70
2023/02/07 07:18:23;;;;;;;25.27;16.88;;;-0.70;99.30;;;;;;5010970;28;20054;-70
2023/02/07 07:21:10;;;;;;;28.52;18.05;;;-0.70;99.30;;;;;;4997900;28;20032;-70
2023/02/07 07:23:55;;;;;;;29.23;17.67;;;-0.70;99.30;;;;;;4992802;28;20498;-70
2023/02/07 07:26:42;;;;;;;25.70;18.02;;;-0.70;99.30;;;;;;5004967;28;20033;-70
2023/02/07 07:29:27;;;;;;;32.70;18.75;;;-0.60;99.40;;;;;;4995161;28;20153;-70
2023/02/07 07:32:14;;;;;;;31.60;18.52;;;-0.50;99.40;;;;;;4994524;28;20038;-72
2023/02/07 07:35:02;;;;;;;27.38;18.42;;;-0.50;99.40;;;;;;5005853;28;20029;-71
2023/02/07 07:37:48;;;;;;;29.50;18.23;;;-0.50;99.40;;;;;;5010654;28;20030;-71
2023/02/07 07:40:34;;;;;;;29.30;19.52;;;-0.50;99.40;;;;;;4996530;28;20042;-71
2023/02/07 07:43:20;;;;;;;32.70;20.45;;;-0.40;99.40;;;;;;4998218;28;20034;-70
2023/02/07 07:46:07;;;;;;;32.88;18.95;;;-0.30;99.40;;;;;;4991163;28;20521;-71
2023/02/07 07:48:53;;;;;;;31.23;19.00;;;-0.30;99.40;;;;;;5016046;28;20709;-70
2023/02/07 07:51:39;;;;;;;34.70;22.15;;;-0.20;99.40;;;;;;5008657;28;20030;-70
2023/02/07 07:54:25;;;;;;;34.33;21.30;;;-0.20;99.40;;;;;;4991550;28;20485;-70
2023/02/07 07:57:11;;;;;;;36.65;21.95;;;-0.10;99.50;;;;;;4992587;28;20406;-71
2023/02/07 07:59:57;;;;;;;41.55;21.88;;;-0.10;99.50;;;;;;5011502;28;20575;-70
2023/02/07 08:02:43;;;;;;;38.67;20.95;;;0.00;99.40;;;;;;5029422;28;20044;-70
2023/02/07 08:05:29;;;;;;;29.02;19.80;;;0.10;99.40;;;;;;5016481;28;20049;-70
2023/02/07 08:08:18;;;;;;;31.63;19.17;;;0.10;99.40;;;;;;5021764;28;20090;-69
2023/02/07 08:11:06;;;;;;;34.10;20.70;;;0.10;99.30;;;;;;5016826;28;20021;-68
2023/02/07 08:13:52;;;;;;;41.05;21.42;;;0.20;99.30;;;;;;5022740;28;20393;-69
2023/02/07 08:16:38;;;;;;;35.25;20.42;;;0.20;99.30;;;;;;5016341;28;20069;-69
2023/02/07 08:19:24;;;;;;;33.55;19.70;;;0.30;99.30;;;;;;5007832;28;20069;-69
2023/02/07 08:22:10;;;;;;;32.53;21.13;;;0.40;99.30;;;;;;5033544;28;20021;-70
2023/02/07 08:24:56;;;;;;;32.50;20.98;;;0.40;99.30;;;;;;5036661;28;20045;-70
2023/02/07 08:27:42;;;;;;;33.72;21.27;;;0.50;99.30;;;;;;5023757;28;20442;-70
2023/02/07 08:30:28;;;;;;;31.67;19.67;;;0.50;99.20;;;;;;5014483;28;20052;-70
2023/02/07 08:33:15;;;;;;;35.63;20.75;;;0.50;99.20;;;;;;5015514;28;20469;-70
2023/02/07 08:36:04;;;;;;;34.90;20.50;;;0.60;99.20;;;;;;5025721;28;20435;-71
2023/02/07 08:38:50;;;;;;;33.08;19.40;;;0.70;99.20;;;;;;5018124;28;20312;-70
2023/02/07 08:41:36;;;;;;;28.88;18.15;;;0.70;99.10;;;;;;5029906;28;20021;-69
2023/02/07 08:44:22;;;;;;;27.33;17.63;;;0.70;99.10;;;;;;5014907;28;20132;-69
2023/02/07 08:47:08;;;;;;;25.98;16.98;;;0.80;99.10;;;;;;5014248;28;20022;-69
2023/02/07 08:49:54;;;;;;;26.63;17.35;;;0.90;99.00;;;;;;5014931;28;20073;-69
2023/02/07 08:52:41;;;;;;;25.05;16.58;;;0.90;99.00;;;;;;5028880;28;20025;-69
2023/02/07 08:55:26;;;;;;;26.48;16.88;;;1.00;98.90;;;;;;5019746;28;20141;-70
2023/02/07 08:58:12;;;;;;;29.58;16.70;;;1.00;98.90;;;;;;5012672;28;20052;-70
2023/02/07 09:00:58;;;;;;;26.75;16.23;;;1.10;98.90;;;;;;5017721;28;20042;-70
2023/02/07 09:03:44;;;;;;;27.55;16.70;;;1.10;98.80;;;;;;5014944;28;20041;-70
2023/02/07 09:06:30;;;;;;;27.23;16.13;;;1.20;98.80;;;;;;5018302;28;20072;-70
2023/02/07 09:09:17;;;;;;;25.05;16.92;;;1.30;98.80;;;;;;5025030;28;20118;-70
2023/02/07 09:12:03;;;;;;;27.20;15.93;;;1.30;98.80;;;;;;5026893;28;20447;-70
2023/02/07 09:14:49;;;;;;;26.10;16.98;;;1.40;98.70;;;;;;5015085;28;20398;-69
2023/02/07 09:17:36;;;;;;;25.45;16.70;;;1.40;98.90;;;;;;5022910;28;20029;-69
2023/02/07 09:20:22;;;;;;;28.40;17.58;;;1.50;98.60;;;;;;5021303;28;20036;-70
2023/02/07 09:23:18;;;;;;;25.20;16.65;;;1.60;98.60;;;;;;5007649;28;20022;-69
2023/02/07 09:26:06;;;;;;;27.10;16.77;;;1.60;98.50;;;;;;5021001;28;20570;-70
2023/02/07 09:28:52;;;;;;;27.40;16.55;;;1.70;98.50;;;;;;5022967;28;20639;-70
2023/02/07 09:31:39;;;;;;;28.98;17.80;;;1.80;98.50;;;;;;5036031;28;20489;-69
2023/02/07 09:34:26;;;;;;;29.10;17.45;;;1.80;98.40;;;;;;5026250;28;20044;-70
2023/02/07 09:37:12;;;;;;;24.98;16.42;;;1.90;98.40;;;;;;5005714;28;20048;-69
2023/02/07 09:39:58;;;;;;;24.55;16.02;;;1.90;98.30;;;;;;5031048;28;20025;-69
2023/02/07 09:42:54;;;;;;;26.10;17.25;;;2.00;98.20;;;;;;5015857;28;20615;-69
2023/02/07 09:45:45;;;;;;;25.40;15.57;;;2.10;98.20;;;;;;5021940;28;20304;-69
2023/02/07 09:48:52;;;;;;;27.80;17.05;;;2.10;98.10;;;;;;5011925;28;20037;-69
2023/02/07 09:51:39;;;;;;;27.85;16.25;;;2.20;98.00;;;;;;5002685;28;20404;-70
2023/02/07 09:54:36;;;;;;;26.35;16.83;;;2.20;98.00;;;;;;5027423;28;20543;-69
2023/02/07 09:57:36;;;;;;;25.88;16.15;;;2.20;98.10;;;;;;5032497;28;20029;-69
2023/02/07 10:00:29;;;;;;;28.20;17.58;;;2.20;97.90;;;;;;5023092;28;20111;-70
2023/02/07 10:03:17;;;;;;;28.63;17.15;;;2.30;97.90;;;;;;5028956;28;20504;-70
2023/02/07 10:06:17;;;;;;;25.33;16.50;;;2.30;97.90;;;;;;5020222;28;20509;-70
2023/02/07 10:09:08;;;;;;;25.52;16.15;;;2.30;97.80;;;;;;5004493;28;20057;-70
2023/02/07 10:12:11;;;;;;;24.27;16.58;;;2.40;97.80;;;;;;5019481;28;20037;-70
2023/02/07 10:15:12;;;;;;;27.45;17.40;;;2.40;97.70;;;;;;5020913;28;20453;-70
2023/02/07 10:18:45;;;;;;;25.70;16.85;;;2.50;97.70;;;;;;5025995;28;20493;-70
2023/02/07 10:21:46;;;;;;;25.10;16.17;;;2.50;97.60;;;;;;5015943;28;20033;-69
2023/02/07 10:25:27;;;;;;;23.77;15.60;;;2.60;97.60;;;;;;5025263;28;20073;-70
2023/02/07 10:28:13;;;;;;;26.45;15.45;;;2.60;97.50;;;;;;4953365;28;20126;-69
2023/02/07 10:31:03;;;;;;;24.23;15.65;;;2.60;97.50;;;;;;5016240;28;20450;-69
2023/02/07 10:33:36;;;;;;;25.77;14.75;;;2.70;97.40;;;;;;5015466;28;20492;-69
2023/02/07 10:36:13;;;;;;;22.17;14.20;;;2.80;97.30;;;;;;5026433;28;20034;-69
2023/02/07 10:39:12;;;;;;;19.33;13.40;;;2.80;97.00;;;;;;5025359;28;20030;-69
2023/02/07 10:41:41;;;;;;;23.58;15.63;;;2.80;96.90;;;;;;5018098;28;20028;-69
2023/02/07 10:44:18;;;;;;;26.45;15.35;;;2.80;96.80;;;;;;5024865;28;20111;-69
2023/02/07 10:46:46;;;;;;;22.05;14.77;;;2.80;96.60;;;;;;5016158;28;20029;-69
2023/02/07 10:49:22;;;;;;;22.35;15.48;;;2.80;96.50;;;;;;5019708;28;20045;-69
2023/02/07 10:51:50;;;;;;;26.83;15.35;;;2.90;96.40;;;;;;5029966;28;20036;-69
2023/02/07 10:54:23;;;;;;;22.38;15.05;;;2.90;96.00;;;;;;5026664;28;20469;-69
2023/02/07 10:56:59;;;;;;;23.23;14.15;;;2.90;96.10;;;;;;5021496;28;20029;-69
2023/02/07 10:59:33;;;;;;;28.70;15.50;;;2.90;96.10;;;;;;5012532;28;20045;-67
2023/02/07 11:01:59;;;;;;;19.67;13.70;;;3.00;96.00;;;;;;5017146;28;20477;-67
2023/02/07 11:04:41;;;;;;;29.90;15.88;;;3.00;96.10;;;;;;5029825;28;20126;-67
2023/02/07 11:07:13;;;;;;;24.23;15.57;;;3.10;96.00;;;;;;5011713;28;20386;-69
2023/02/07 11:09:40;;;;;;;23.30;15.82;;;3.10;95.90;;;;;;5020636;28;20033;-67
2023/02/07 11:12:18;;;;;;;25.20;15.43;;;3.10;95.90;;;;;;5020113;28;20117;-69
2023/02/07 11:15:03;;;;;;;23.40;15.00;;;3.20;95.90;;;;;;5035889;28;20029;-67
2023/02/07 11:17:31;;;;;;;25.60;15.60;;;3.30;95.90;;;;;;5024781;28;20033;-68
2023/02/07 11:20:03;;;;;;;25.55;15.95;;;3.30;95.90;;;;;;5015793;28;20484;-68
2023/02/07 11:22:30;;;;;;;24.95;16.00;;;3.40;95.90;;;;;;5013673;28;20087;-68
2023/02/07 11:25:05;;;;;;;25.23;15.40;;;3.40;95.90;;;;;;5026659;28;20618;-68
2023/02/07 11:27:40;;;;;;;21.17;14.98;;;3.40;95.80;;;;;;5016864;28;20026;-68
2023/02/07 11:30:15;;;;;;;20.92;15.68;;;3.50;95.70;;;;;;5019394;28;20063;-68
2023/02/07 11:32:42;;;;;;;24.45;14.73;;;3.50;95.70;;;;;;4997595;28;20034;-68
2023/02/07 11:35:17;;;;;;;22.30;14.98;;;3.50;95.70;;;;;;5016164;28;20036;-68
2023/02/07 11:37:57;;;;;;;18.83;13.18;;;3.60;95.70;;;;;;5015169;28;20401;-69
2023/02/07 11:40:28;;;;;;;19.23;13.02;;;3.60;95.50;;;;;;5013247;28;20141;-69
2023/02/07 11:43:02;;;;;;;23.33;13.80;;;3.70;95.40;;;;;;5014673;28;20041;-69
2023/02/07 11:45:30;;;;;;;20.40;12.35;;;3.70;95.30;;;;;;5033850;28;20041;-69
2023/02/07 11:47:57;;;;;;;20.85;13.40;;;3.80;95.10;;;;;;5015804;28;20043;-68
2023/02/07 11:50:39;;;;;;;19.13;12.60;;;3.70;94.90;;;;;;5027902;28;20026;-68
2023/02/07 11:53:06;;;;;;;19.52;11.63;;;3.70;94.70;;;;;;5019376;28;20053;-68
2023/02/07 11:55:35;;;;;;;18.00;11.48;;;3.80;94.50;;;;;;5025406;28;20037;-68
2023/02/07 11:58:17;;;;;;;17.30;11.90;;;3.70;94.20;;;;;;5027276;28;20021;-68
2023/02/07 12:00:44;;;;;;;16.10;11.43;;;3.70;94.10;;;;;;5024190;28;20042;-68
2023/02/07 12:03:26;;;;;;;19.10;11.35;;;3.80;94.20;;;;;;5018873;28;20433;-68
2023/02/07 12:05:59;;;;;;;16.27;10.45;;;3.80;93.90;;;;;;5018714;28;20216;-68
2023/02/07 12:08:29;;;;;;;16.70;10.10;;;3.80;94.00;;;;;;5022433;28;20115;-68
2023/02/07 12:11:01;;;;;;;15.93;9.05;;;3.80;93.90;;;;;;5018589;28;20034;-68
2023/02/07 12:13:38;;;;;;;13.57;9.23;;;3.80;93.70;;;;;;5019589;28;20110;-68
2023/02/07 12:16:11;;;;;;;19.85;10.70;;;3.90;93.50;;;;;;5012052;28;20112;-69
2023/02/07 12:18:42;;;;;;;16.40;10.25;;;3.90;93.30;;;;;;5011169;28;20063;-68
2023/02/07 12:21:22;;;;;;;17.13;9.77;;;3.90;93.30;;;;;;5015945;28;20034;-68
2023/02/07 12:24:06;;;;;;;18.42;11.18;;;4.00;93.20;;;;;;5026735;28;20021;-70
2023/02/07 12:26:43;;;;;;;17.00;10.65;;;4.00;93.00;;;;;;5024172;28;20504;-68
2023/02/07 12:29:17;;;;;;;17.55;10.43;;;4.00;93.00;;;;;;5026781;28;20017;-68
2023/02/07 12:31:50;;;;;;;20.30;10.95;;;4.00;92.80;;;;;;5028266;28;20041;-68
2023/02/07 12:34:34;;;;;;;18.00;10.55;;;4.10;92.90;;;;;;5008558;28;20320;-68
2023/02/07 12:37:14;;;;;;;15.55;9.65;;;4.10;92.90;;;;;;5028618;28;20473;-68
2023/02/07 12:39:51;;;;;;;15.38;9.85;;;4.10;92.80;;;;;;5029009;28;20393;-67
2023/02/07 12:42:32;;;;;;;17.10;10.35;;;4.20;92.80;;;;;;5012087;28;20029;-67
2023/02/07 12:45:00;;;;;;;15.75;9.48;;;4.20;92.70;;;;;;5020756;28;20481;-68
2023/02/07 12:47:47;;;;;;;15.23;10.73;;;4.30;92.70;;;;;;5003597;28;20488;-67
2023/02/07 12:50:58;;;;;;;16.35;10.35;;;4.30;92.50;;;;;;5025689;28;20029;-67
2023/02/07 12:53:29;;;;;;;14.82;9.10;;;4.30;92.40;;;;;;4996946;28;20038;-66
2023/02/07 12:56:18;;;;;;;14.30;9.60;;;4.30;92.50;;;;;;5020220;28;20432;-66
2023/02/07 12:58:59;;;;;;;13.88;9.65;;;4.40;92.30;;;;;;5025121;28;20041;-67
2023/02/07 13:01:36;;;;;;;15.55;9.18;;;4.40;92.20;;;;;;5014230;28;20069;-67
2023/02/07 13:04:14;;;;;;;14.25;9.05;;;4.40;92.30;;;;;;5020428;28;20025;-67
2023/02/07 13:06:49;;;;;;;14.43;8.82;;;4.50;92.10;;;;;;5007042;28;20066;-67
2023/02/07 13:09:28;;;;;;;12.85;8.77;;;4.50;91.90;;;;;;5010154;28;20472;-68
2023/02/07 13:12:10;;;;;;;15.68;9.82;;;4.60;91.80;;;;;;5014985;28;20037;-68
2023/02/07 13:15:12;;;;;;;16.00;10.35;;;4.60;91.70;;;;;;5015797;28;20037;-66
2023/02/07 13:17:59;;;;;;;18.02;9.02;;;4.60;91.60;;;;;;5017411;28;20046;-67
2023/02/07 13:20:43;;;;;;;13.18;8.50;;;4.60;91.60;;;;;;5013391;28;20156;-68
2023/02/07 13:23:22;;;;;;;15.50;9.30;;;4.60;91.50;;;;;;5013357;28;20026;-67
2023/02/07 13:25:56;;;;;;;13.30;9.27;;;4.60;91.30;;;;;;5021348;28;20044;-67
2023/02/07 13:28:41;;;;;;;14.65;8.35;;;4.60;91.30;;;;;;5020187;28;20076;-67
2023/02/07 13:31:10;;;;;;;14.00;8.90;;;4.60;91.20;;;;;;5018920;28;20028;-67
2023/02/07 13:33:38;;;;;;;15.15;9.13;;;4.70;91.30;;;;;;5022208;28;20038;-68
2023/02/07 13:36:25;;;;;;;14.65;9.00;;;4.70;91.20;;;;;;5016069;28;20053;-69
2023/02/07 13:39:03;;;;;;;15.77;9.68;;;4.70;91.10;;;;;;5013897;28;20033;-70
2023/02/07 13:41:55;;;;;;;15.18;9.52;;;4.80;91.00;;;;;;5036557;28;20061;-68
2023/02/07 13:44:26;;;;;;;14.48;9.27;;;4.80;91.00;;;;;;5023357;28;20068;-68
2023/02/07 13:47:27;;;;;;;13.90;9.15;;;4.80;91.00;;;;;;5026353;28;20028;-68
2023/02/07 13:50:18;;;;;;;20.10;9.90;;;4.80;90.70;;;;;;5019611;28;20037;-68
2023/02/07 13:53:07;;;;;;;15.35;8.90;;;4.90;90.70;;;;;;5019038;28;20058;-68
2023/02/07 13:55:38;;;;;;;14.63;9.55;;;4.90;90.70;;;;;;5017094;28;20021;-68
2023/02/07 14:01:16;;;;;;;13.63;9.38;;;5.00;90.70;;;;;;5022970;28;20065;-69
2023/02/07 14:03:59;;;;;;;15.63;9.73;;;5.00;90.60;;;;;;5026045;28;20063;-70
2023/02/07 14:06:27;;;;;;;16.55;10.32;;;5.10;90.60;;;;;;5028438;28;20030;-69
2023/02/07 14:09:05;;;;;;;16.92;9.30;;;5.10;90.60;;;;;;5014725;28;20112;-69
2023/02/07 14:11:36;;;;;;;18.90;10.15;;;5.20;90.50;;;;;;5017801;28;20026;-69